createdAt,value
2018-07-13T00:02:59.538Z,5.60
2018-07-13T00:18:03.241Z,6.00
2018-07-13T00:33:06.942Z,5.87
2018-07-13T00:48:10.741Z,5.57
2018-07-13T01:03:14.590Z,5.77
2018-07-13T01:18:18.358Z,5.37
2018-07-13T01:33:23.396Z,5.90
2018-07-13T01:48:27.116Z,5.57
2018-07-13T02:03:30.872Z,4.90
2018-07-13T02:18:34.636Z,5.10
2018-07-13T02:33:38.793Z,5.87
2018-07-13T02:48:42.553Z,6.17
2018-07-13T03:03:46.321Z,6.90
2018-07-13T03:18:50.003Z,6.77
2018-07-13T03:33:53.688Z,8.13
2018-07-13T03:48:57.397Z,6.60
2018-07-13T04:04:01.230Z,7.20
2018-07-13T04:19:05.328Z,7.43
2018-07-13T04:34:09.139Z,7.27
2018-07-13T04:49:15.084Z,17.87
2018-07-13T05:04:19.076Z,19.57
2018-07-13T05:19:22.864Z,19.77
2018-07-13T05:34:26.780Z,19.03
2018-07-13T05:49:30.931Z,19.47
2018-07-13T06:04:34.928Z,19.80
2018-07-13T06:19:38.684Z,18.50
2018-07-13T06:34:42.388Z,18.57
2018-07-13T06:49:47.133Z,17.73
2018-07-13T07:04:53.795Z,18.00
2018-07-13T07:19:57.561Z,17.67
2018-07-13T07:35:01.380Z,17.05
2018-07-13T07:50:05.341Z,15.35
2018-07-13T08:05:09.137Z,14.53
2018-07-13T08:20:16.011Z,15.55
2018-07-13T08:35:19.828Z,15.85
2018-07-13T08:50:24.718Z,14.90
2018-07-13T09:05:28.618Z,14.15
2018-07-13T09:20:32.409Z,15.35
2018-07-13T09:35:36.122Z,14.37
2018-07-13T09:50:39.955Z,13.93
2018-07-13T10:05:43.806Z,12.47
2018-07-13T10:20:48.125Z,13.43
2018-07-13T10:35:52.464Z,11.68
2018-07-13T10:50:56.238Z,12.25
2018-07-13T11:05:59.979Z,10.25
2018-07-13T11:21:03.801Z,10.28
2018-07-13T11:36:07.501Z,9.53
2018-07-13T11:51:11.526Z,8.43
2018-07-13T12:06:15.307Z,10.53
2018-07-13T12:21:19.125Z,14.10
2018-07-13T12:36:22.898Z,13.80
2018-07-13T12:51:26.779Z,14.27
2018-07-13T13:06:31.606Z,13.33
2018-07-13T13:21:35.420Z,13.33
2018-07-13T13:36:39.181Z,14.43
2018-07-13T13:51:42.945Z,16.17
2018-07-13T14:06:46.752Z,14.13
2018-07-13T14:21:50.700Z,16.73
2018-07-13T14:36:54.544Z,16.80
2018-07-13T14:51:58.317Z,16.03
2018-07-13T15:07:02.112Z,16.37
2018-07-13T15:22:06.911Z,16.93
2018-07-13T15:37:10.685Z,16.97
2018-07-13T15:52:14.572Z,16.40
2018-07-13T16:07:18.357Z,16.30
2018-07-13T16:22:22.125Z,16.40
2018-07-13T16:37:26.876Z,14.07
2018-07-13T16:52:30.623Z,21.37
2018-07-13T17:07:34.312Z,20.07
2018-07-13T17:22:38.094Z,20.23
2018-07-13T17:37:42.697Z,18.27
2018-07-13T17:52:46.493Z,17.07
2018-07-13T18:07:50.296Z,15.97
2018-07-13T18:22:54.115Z,16.63
2018-07-13T18:37:58.514Z,16.83
2018-07-13T18:53:02.770Z,22.10
2018-07-13T19:08:06.567Z,27.23
2018-07-13T19:23:10.368Z,23.80
2018-07-13T19:38:14.182Z,20.37
2018-07-13T19:53:18.057Z,22.50
2018-07-13T20:08:21.862Z,19.10
2018-07-13T20:23:25.630Z,16.87
2018-07-13T20:38:31.419Z,15.00
2018-07-13T20:53:35.506Z,13.70
2018-07-13T21:08:39.301Z,12.07
2018-07-13T21:23:43.047Z,11.60
2018-07-13T21:38:47.893Z,10.57
2018-07-13T21:53:51.706Z,10.00
2018-07-13T22:08:55.464Z,9.03
2018-07-13T22:23:59.334Z,9.37
2018-07-13T22:39:04.206Z,9.93
2018-07-13T22:54:09.185Z,9.13
2018-07-13T23:09:12.988Z,8.20
2018-07-13T23:24:17.845Z,9.50
2018-07-13T23:39:21.557Z,7.73
2018-07-13T23:54:25.361Z,6.93
